sensor_id;sensor_type;location;lat;lon;timestamp;temperature;humidity
77467;DHT22;66564;42.482;25.548;2023-06-19T00:00:09;20.79;64.46
77467;DHT22;66564;42.482;25.548;2023-06-19T00:02:39;20.77;64.02
77467;DHT22;66564;42.482;25.548;2023-06-19T00:05:06;20.78;63.84
77467;DHT22;66564;42.482;25.548;2023-06-19T00:07:33;20.78;63.42
77467;DHT22;66564;42.482;25.548;2023-06-19T00:09:59;20.79;63.80
77467;DHT22;66564;42.482;25.548;2023-06-19T00:12:25;20.78;63.62
77467;DHT22;66564;42.482;25.548;2023-06-19T00:14:50;20.75;63.30
77467;DHT22;66564;42.482;25.548;2023-06-19T00:17:16;20.75;63.36
77467;DHT22;66564;42.482;25.548;2023-06-19T00:19:44;20.74;63.07
77467;DHT22;66564;42.482;25.548;2023-06-19T00:22:10;20.71;63.40
77467;DHT22;66564;42.482;25.548;2023-06-19T00:24:35;20.67;63.21
77467;DHT22;66564;42.482;25.548;2023-06-19T00:27:01;20.67;63.28
77467;DHT22;66564;42.482;25.548;2023-06-19T00:29:28;20.63;63.22
77467;DHT22;66564;42.482;25.548;2023-06-19T00:31:54;20.63;63.35
77467;DHT22;66564;42.482;25.548;2023-06-19T00:34:21;20.67;63.05
77467;DHT22;66564;42.482;25.548;2023-06-19T00:36:49;20.67;63.06
77467;DHT22;66564;42.482;25.548;2023-06-19T00:39:15;20.58;63.99
77467;DHT22;66564;42.482;25.548;2023-06-19T00:41:42;20.55;63.38
77467;DHT22;66564;42.482;25.548;2023-06-19T00:44:08;20.52;63.21
77467;DHT22;66564;42.482;25.548;2023-06-19T00:46:36;20.49;64.23
77467;DHT22;66564;42.482;25.548;2023-06-19T00:49:03;20.51;63.38
77467;DHT22;66564;42.482;25.548;2023-06-19T00:51:28;20.52;63.75
77467;DHT22;66564;42.482;25.548;2023-06-19T00:53:55;20.54;63.81
77467;DHT22;66564;42.482;25.548;2023-06-19T00:56:20;20.52;63.33
77467;DHT22;66564;42.482;25.548;2023-06-19T00:58:46;20.51;63.26
77467;DHT22;66564;42.482;25.548;2023-06-19T01:01:12;20.52;63.41
77467;DHT22;66564;42.482;25.548;2023-06-19T01:03:38;20.51;63.37
77467;DHT22;66564;42.482;25.548;2023-06-19T01:06:13;20.51;63.35
77467;DHT22;66564;42.482;25.548;2023-06-19T01:08:52;20.48;63.49
77467;DHT22;66564;42.482;25.548;2023-06-19T01:11:23;20.54;63.80
77467;DHT22;66564;42.482;25.548;2023-06-19T01:13:55;20.47;63.31
77467;DHT22;66564;42.482;25.548;2023-06-19T01:16:24;20.52;63.26
77467;DHT22;66564;42.482;25.548;2023-06-19T01:18:50;20.54;62.89
77467;DHT22;66564;42.482;25.548;2023-06-19T01:21:18;20.54;63.42
77467;DHT22;66564;42.482;25.548;2023-06-19T01:23:45;20.55;62.69
77467;DHT22;66564;42.482;25.548;2023-06-19T01:26:11;20.59;62.79
77467;DHT22;66564;42.482;25.548;2023-06-19T01:28:41;20.59;62.99
77467;DHT22;66564;42.482;25.548;2023-06-19T01:31:19;20.58;62.69
77467;DHT22;66564;42.482;25.548;2023-06-19T01:33:47;20.61;62.67
77467;DHT22;66564;42.482;25.548;2023-06-19T01:36:17;20.59;63.00
77467;DHT22;66564;42.482;25.548;2023-06-19T01:38:44;20.59;62.60
77467;DHT22;66564;42.482;25.548;2023-06-19T01:41:11;20.64;63.19
77467;DHT22;66564;42.482;25.548;2023-06-19T01:43:37;20.67;63.30
77467;DHT22;66564;42.482;25.548;2023-06-19T01:46:03;20.67;62.83
77467;DHT22;66564;42.482;25.548;2023-06-19T01:48:29;20.63;62.58
77467;DHT22;66564;42.482;25.548;2023-06-19T01:50:55;20.64;62.79
77467;DHT22;66564;42.482;25.548;2023-06-19T01:53:20;20.58;62.53
77467;DHT22;66564;42.482;25.548;2023-06-19T01:55:46;20.61;62.26
77467;DHT22;66564;42.482;25.548;2023-06-19T01:58:12;20.67;62.97
77467;DHT22;66564;42.482;25.548;2023-06-19T02:00:37;20.65;62.58
77467;DHT22;66564;42.482;25.548;2023-06-19T02:03:04;20.67;62.41
77467;DHT22;66564;42.482;25.548;2023-06-19T02:05:30;20.64;62.84
77467;DHT22;66564;42.482;25.548;2023-06-19T02:07:56;20.64;62.51
77467;DHT22;66564;42.482;25.548;2023-06-19T02:10:22;20.67;62.56
77467;DHT22;66564;42.482;25.548;2023-06-19T02:12:48;20.65;62.87
77467;DHT22;66564;42.482;25.548;2023-06-19T02:15:13;20.67;62.58
77467;DHT22;66564;42.482;25.548;2023-06-19T02:17:39;20.64;63.09
77467;DHT22;66564;42.482;25.548;2023-06-19T02:20:05;20.67;62.77
77467;DHT22;66564;42.482;25.548;2023-06-19T02:22:34;20.61;63.23
77467;DHT22;66564;42.482;25.548;2023-06-19T02:24:59;20.63;63.32
77467;DHT22;66564;42.482;25.548;2023-06-19T02:27:25;20.61;62.92
77467;DHT22;66564;42.482;25.548;2023-06-19T02:29:51;20.57;62.79
77467;DHT22;66564;42.482;25.548;2023-06-19T02:32:16;20.55;63.45
77467;DHT22;66564;42.482;25.548;2023-06-19T02:34:41;20.54;63.24
77467;DHT22;66564;42.482;25.548;2023-06-19T02:37:07;20.58;63.38
77467;DHT22;66564;42.482;25.548;2023-06-19T02:39:33;20.61;63.47
77467;DHT22;66564;42.482;25.548;2023-06-19T02:41:58;20.61;63.33
77467;DHT22;66564;42.482;25.548;2023-06-19T02:44:25;20.61;63.05
77467;DHT22;66564;42.482;25.548;2023-06-19T02:46:50;20.59;63.65
77467;DHT22;66564;42.482;25.548;2023-06-19T02:49:16;20.61;63.33
77467;DHT22;66564;42.482;25.548;2023-06-19T02:51:41;20.57;63.14
77467;DHT22;66564;42.482;25.548;2023-06-19T02:54:07;20.57;63.24
77467;DHT22;66564;42.482;25.548;2023-06-19T02:56:33;20.57;63.25
77467;DHT22;66564;42.482;25.548;2023-06-19T02:58:58;20.52;63.33
77467;DHT22;66564;42.482;25.548;2023-06-19T03:01:24;20.58;64.25
77467;DHT22;66564;42.482;25.548;2023-06-19T03:03:49;20.58;63.50
77467;DHT22;66564;42.482;25.548;2023-06-19T03:06:17;20.55;63.36
77467;DHT22;66564;42.482;25.548;2023-06-19T03:08:43;20.58;63.14
77467;DHT22;66564;42.482;25.548;2023-06-19T03:11:09;20.58;62.87
77467;DHT22;66564;42.482;25.548;2023-06-19T03:13:51;20.61;62.90
77467;DHT22;66564;42.482;25.548;2023-06-19T03:16:17;20.57;62.99
77467;DHT22;66564;42.482;25.548;2023-06-19T03:18:43;20.59;63.16
77467;DHT22;66564;42.482;25.548;2023-06-19T03:21:12;20.65;62.90
77467;DHT22;66564;42.482;25.548;2023-06-19T03:23:38;20.64;63.15
77467;DHT22;66564;42.482;25.548;2023-06-19T03:26:03;20.65;62.96
77467;DHT22;66564;42.482;25.548;2023-06-19T03:28:29;20.61;63.24
77467;DHT22;66564;42.482;25.548;2023-06-19T03:30:55;20.61;63.13
77467;DHT22;66564;42.482;25.548;2023-06-19T03:33:20;20.64;63.60
77467;DHT22;66564;42.482;25.548;2023-06-19T03:35:46;20.61;63.00
77467;DHT22;66564;42.482;25.548;2023-06-19T03:38:11;20.64;62.85
77467;DHT22;66564;42.482;25.548;2023-06-19T03:40:37;20.64;62.84
77467;DHT22;66564;42.482;25.548;2023-06-19T03:43:02;20.71;62.95
77467;DHT22;66564;42.482;25.548;2023-06-19T03:45:28;20.68;62.93
77467;DHT22;66564;42.482;25.548;2023-06-19T03:47:53;20.71;62.77
77467;DHT22;66564;42.482;25.548;2023-06-19T03:50:19;20.72;62.89
77467;DHT22;66564;42.482;25.548;2023-06-19T03:52:45;20.75;63.13
77467;DHT22;66564;42.482;25.548;2023-06-19T03:55:10;20.79;62.97
77467;DHT22;66564;42.482;25.548;2023-06-19T03:57:36;20.82;63.10
77467;DHT22;66564;42.482;25.548;2023-06-19T04:00:01;20.85;62.87
77467;DHT22;66564;42.482;25.548;2023-06-19T04:02:30;20.88;62.99
77467;DHT22;66564;42.482;25.548;2023-06-19T04:04:55;20.92;63.23
77467;DHT22;66564;42.482;25.548;2023-06-19T04:07:21;20.94;62.50
77467;DHT22;66564;42.482;25.548;2023-06-19T04:09:46;20.95;62.68
77467;DHT22;66564;42.482;25.548;2023-06-19T04:12:12;20.98;62.93
77467;DHT22;66564;42.482;25.548;2023-06-19T04:14:39;21.05;62.99
77467;DHT22;66564;42.482;25.548;2023-06-19T04:17:05;21.03;62.90
77467;DHT22;66564;42.482;25.548;2023-06-19T04:19:31;21.03;63.06
77467;DHT22;66564;42.482;25.548;2023-06-19T04:21:56;21.06;62.88
77467;DHT22;66564;42.482;25.548;2023-06-19T04:24:22;21.08;62.52
77467;DHT22;66564;42.482;25.548;2023-06-19T04:26:47;21.11;62.97
77467;DHT22;66564;42.482;25.548;2023-06-19T04:29:13;21.15;62.99
77467;DHT22;66564;42.482;25.548;2023-06-19T04:31:45;21.22;63.59
77467;DHT22;66564;42.482;25.548;2023-06-19T04:34:16;21.25;62.90
77467;DHT22;66564;42.482;25.548;2023-06-19T04:36:41;21.31;62.87
77467;DHT22;66564;42.482;25.548;2023-06-19T04:39:07;21.32;63.50
77467;DHT22;66564;42.482;25.548;2023-06-19T04:41:34;21.36;63.28
77467;DHT22;66564;42.482;25.548;2023-06-19T04:44:06;21.42;62.80
77467;DHT22;66564;42.482;25.548;2023-06-19T04:46:33;21.54;62.85
77467;DHT22;66564;42.482;25.548;2023-06-19T04:49:02;21.62;62.42
77467;DHT22;66564;42.482;25.548;2023-06-19T04:51:30;21.60;62.00
77467;DHT22;66564;42.482;25.548;2023-06-19T04:54:00;21.67;61.62
77467;DHT22;66564;42.482;25.548;2023-06-19T04:56:26;21.74;62.02
77467;DHT22;66564;42.482;25.548;2023-06-19T04:58:53;21.83;61.01
77467;DHT22;66564;42.482;25.548;2023-06-19T05:01:21;21.87;61.38
77467;DHT22;66564;42.482;25.548;2023-06-19T05:03:52;21.89;60.57
77467;DHT22;66564;42.482;25.548;2023-06-19T05:06:18;21.94;61.18
77467;DHT22;66564;42.482;25.548;2023-06-19T05:08:43;22.01;60.75
77467;DHT22;66564;42.482;25.548;2023-06-19T05:11:09;22.04;60.29
77467;DHT22;66564;42.482;25.548;2023-06-19T05:13:34;22.07;60.94
77467;DHT22;66564;42.482;25.548;2023-06-19T05:16:00;22.14;60.46
77467;DHT22;66564;42.482;25.548;2023-06-19T05:18:28;22.17;60.40
77467;DHT22;66564;42.482;25.548;2023-06-19T05:20:54;22.25;60.69
77467;DHT22;66564;42.482;25.548;2023-06-19T05:23:19;22.36;60.56
77467;DHT22;66564;42.482;25.548;2023-06-19T05:25:45;22.43;60.57
77467;DHT22;66564;42.482;25.548;2023-06-19T05:28:11;22.48;59.89
77467;DHT22;66564;42.482;25.548;2023-06-19T05:30:36;22.57;61.01
77467;DHT22;66564;42.482;25.548;2023-06-19T05:33:02;22.54;60.18
77467;DHT22;66564;42.482;25.548;2023-06-19T05:35:28;22.60;60.02
77467;DHT22;66564;42.482;25.548;2023-06-19T05:37:53;22.62;59.24
77467;DHT22;66564;42.482;25.548;2023-06-19T05:40:19;22.64;59.70
77467;DHT22;66564;42.482;25.548;2023-06-19T05:42:44;22.69;59.26
77467;DHT22;66564;42.482;25.548;2023-06-19T05:45:10;22.67;59.87
77467;DHT22;66564;42.482;25.548;2023-06-19T05:47:36;22.67;59.13
77467;DHT22;66564;42.482;25.548;2023-06-19T05:50:03;22.67;60.21
77467;DHT22;66564;42.482;25.548;2023-06-19T05:52:29;22.67;59.91
77467;DHT22;66564;42.482;25.548;2023-06-19T05:54:54;22.64;59.96
77467;DHT22;66564;42.482;25.548;2023-06-19T05:57:20;22.65;59.95
77467;DHT22;66564;42.482;25.548;2023-06-19T05:59:47;22.61;59.96
77467;DHT22;66564;42.482;25.548;2023-06-19T06:02:13;22.67;60.19
77467;DHT22;66564;42.482;25.548;2023-06-19T06:04:39;22.67;59.73
77467;DHT22;66564;42.482;25.548;2023-06-19T06:07:05;22.67;60.27
77467;DHT22;66564;42.482;25.548;2023-06-19T06:09:30;22.71;60.57
77467;DHT22;66564;42.482;25.548;2023-06-19T06:11:56;22.79;60.90
77467;DHT22;66564;42.482;25.548;2023-06-19T06:14:23;22.89;60.68
77467;DHT22;66564;42.482;25.548;2023-06-19T06:16:48;23.05;59.87
77467;DHT22;66564;42.482;25.548;2023-06-19T06:19:14;23.29;60.64
77467;DHT22;66564;42.482;25.548;2023-06-19T06:21:39;23.56;59.84
77467;DHT22;66564;42.482;25.548;2023-06-19T06:24:06;23.80;59.69
77467;DHT22;66564;42.482;25.548;2023-06-19T06:26:31;24.07;59.00
77467;DHT22;66564;42.482;25.548;2023-06-19T06:28:58;24.31;58.54
77467;DHT22;66564;42.482;25.548;2023-06-19T06:31:24;24.61;57.45
77467;DHT22;66564;42.482;25.548;2023-06-19T06:33:49;24.85;57.48
77467;DHT22;66564;42.482;25.548;2023-06-19T06:36:15;25.14;57.17
77467;DHT22;66564;42.482;25.548;2023-06-19T06:38:44;25.40;55.95
77467;DHT22;66564;42.482;25.548;2023-06-19T06:41:11;25.66;53.18
77467;DHT22;66564;42.482;25.548;2023-06-19T06:43:37;25.90;53.54
77467;DHT22;66564;42.482;25.548;2023-06-19T06:46:03;26.17;51.40
77467;DHT22;66564;42.482;25.548;2023-06-19T06:48:29;26.43;52.63
77467;DHT22;66564;42.482;25.548;2023-06-19T06:50:56;26.67;50.49
77467;DHT22;66564;42.482;25.548;2023-06-19T06:53:27;26.92;50.84
77467;DHT22;66564;42.482;25.548;2023-06-19T06:55:58;27.18;51.08
77467;DHT22;66564;42.482;25.548;2023-06-19T06:58:25;27.39;50.04
77467;DHT22;66564;42.482;25.548;2023-06-19T07:00:50;27.66;50.85
77467;DHT22;66564;42.482;25.548;2023-06-19T07:03:16;27.89;47.29
77467;DHT22;66564;42.482;25.548;2023-06-19T07:05:43;28.03;46.18
77467;DHT22;66564;42.482;25.548;2023-06-19T07:08:09;28.22;45.65
77467;DHT22;66564;42.482;25.548;2023-06-19T07:10:35;28.35;45.27
77467;DHT22;66564;42.482;25.548;2023-06-19T07:13:00;28.49;44.50
77467;DHT22;66564;42.482;25.548;2023-06-19T07:15:26;28.68;44.44
77467;DHT22;66564;42.482;25.548;2023-06-19T07:17:51;28.87;46.95
77467;DHT22;66564;42.482;25.548;2023-06-19T07:20:17;29.06;46.80
77467;DHT22;66564;42.482;25.548;2023-06-19T07:22:43;29.33;46.27
77467;DHT22;66564;42.482;25.548;2023-06-19T07:25:11;29.54;45.14
77467;DHT22;66564;42.482;25.548;2023-06-19T07:27:37;29.74;45.99
77467;DHT22;66564;42.482;25.548;2023-06-19T07:30:03;29.96;43.74
77467;DHT22;66564;42.482;25.548;2023-06-19T07:32:28;30.11;42.24
77467;DHT22;66564;42.482;25.548;2023-06-19T07:34:54;30.20;39.68
77467;DHT22;66564;42.482;25.548;2023-06-19T07:37:19;30.35;41.96
77467;DHT22;66564;42.482;25.548;2023-06-19T07:39:50;30.51;40.56
77467;DHT22;66564;42.482;25.548;2023-06-19T07:42:17;30.69;40.29
77467;DHT22;66564;42.482;25.548;2023-06-19T07:44:43;30.85;39.75
77467;DHT22;66564;42.482;25.548;2023-06-19T07:47:09;31.02;39.65
77467;DHT22;66564;42.482;25.548;2023-06-19T07:49:35;31.18;40.83
77467;DHT22;66564;42.482;25.548;2023-06-19T07:52:01;31.37;37.56
77467;DHT22;66564;42.482;25.548;2023-06-19T07:54:26;31.37;37.70
77467;DHT22;66564;42.482;25.548;2023-06-19T07:56:52;31.40;38.13
77467;DHT22;66564;42.482;25.548;2023-06-19T07:59:18;31.43;36.84
77467;DHT22;66564;42.482;25.548;2023-06-19T08:01:44;31.42;35.05
77467;DHT22;66564;42.482;25.548;2023-06-19T08:04:09;31.37;36.45
77467;DHT22;66564;42.482;25.548;2023-06-19T08:06:35;31.47;38.83
77467;DHT22;66564;42.482;25.548;2023-06-19T08:09:01;31.56;36.77
77467;DHT22;66564;42.482;25.548;2023-06-19T08:11:26;31.63;36.59
77467;DHT22;66564;42.482;25.548;2023-06-19T08:13:52;31.73;37.53
77467;DHT22;66564;42.482;25.548;2023-06-19T08:16:17;31.62;36.04
77467;DHT22;66564;42.482;25.548;2023-06-19T08:18:44;31.59;37.68
77467;DHT22;66564;42.482;25.548;2023-06-19T08:21:09;31.73;37.35
77467;DHT22;66564;42.482;25.548;2023-06-19T08:23:35;31.83;35.74
77467;DHT22;66564;42.482;25.548;2023-06-19T08:26:01;31.97;35.62
77467;DHT22;66564;42.482;25.548;2023-06-19T08:28:27;32.03;35.16
77467;DHT22;66564;42.482;25.548;2023-06-19T08:30:52;32.11;35.86
77467;DHT22;66564;42.482;25.548;2023-06-19T08:33:18;32.24;36.01
77467;DHT22;66564;42.482;25.548;2023-06-19T08:35:43;32.32;35.57
77467;DHT22;66564;42.482;25.548;2023-06-19T08:38:09;32.48;36.86
77467;DHT22;66564;42.482;25.548;2023-06-19T08:40:35;32.67;35.80
77467;DHT22;66564;42.482;25.548;2023-06-19T08:43:01;32.86;34.83
77467;DHT22;66564;42.482;25.548;2023-06-19T08:45:26;32.94;36.70
77467;DHT22;66564;42.482;25.548;2023-06-19T08:48:02;32.91;32.96
77467;DHT22;66564;42.482;25.548;2023-06-19T08:50:33;32.94;32.87
77467;DHT22;66564;42.482;25.548;2023-06-19T08:52:59;32.91;35.09
77467;DHT22;66564;42.482;25.548;2023-06-19T08:55:25;32.94;34.46
77467;DHT22;66564;42.482;25.548;2023-06-19T08:57:51;33.02;36.79
77467;DHT22;66564;42.482;25.548;2023-06-19T09:00:28;33.16;35.98
77467;DHT22;66564;42.482;25.548;2023-06-19T09:03:00;32.92;34.52
77467;DHT22;66564;42.482;25.548;2023-06-19T09:05:27;32.72;34.85
77467;DHT22;66564;42.482;25.548;2023-06-19T09:08:00;32.71;35.83
77467;DHT22;66564;42.482;25.548;2023-06-19T09:10:26;32.65;35.54
77467;DHT22;66564;42.482;25.548;2023-06-19T09:13:04;32.71;36.37
77467;DHT22;66564;42.482;25.548;2023-06-19T09:15:37;32.79;34.80
77467;DHT22;66564;42.482;25.548;2023-06-19T09:18:03;32.82;35.56
77467;DHT22;66564;42.482;25.548;2023-06-19T09:20:29;32.58;35.39
77467;DHT22;66564;42.482;25.548;2023-06-19T09:22:58;32.55;35.21
77467;DHT22;66564;42.482;25.548;2023-06-19T09:25:24;32.38;35.52
77467;DHT22;66564;42.482;25.548;2023-06-19T09:27:55;32.20;35.38
77467;DHT22;66564;42.482;25.548;2023-06-19T09:30:21;32.08;36.25
77467;DHT22;66564;42.482;25.548;2023-06-19T09:32:47;32.04;36.64
77467;DHT22;66564;42.482;25.548;2023-06-19T09:35:12;31.83;36.36
77467;DHT22;66564;42.482;25.548;2023-06-19T09:37:39;31.80;36.58
77467;DHT22;66564;42.482;25.548;2023-06-19T09:40:06;31.70;35.56
77467;DHT22;66564;42.482;25.548;2023-06-19T09:42:37;31.40;36.58
77467;DHT22;66564;42.482;25.548;2023-06-19T09:45:08;31.40;37.92
77467;DHT22;66564;42.482;25.548;2023-06-19T09:47:45;31.44;37.38
77467;DHT22;66564;42.482;25.548;2023-06-19T09:50:12;31.46;38.92
77467;DHT22;66564;42.482;25.548;2023-06-19T09:52:39;31.40;38.88
77467;DHT22;66564;42.482;25.548;2023-06-19T09:55:05;31.46;39.07
77467;DHT22;66564;42.482;25.548;2023-06-19T09:57:35;31.49;40.09
77467;DHT22;66564;42.482;25.548;2023-06-19T10:00:03;31.51;40.49
77467;DHT22;66564;42.482;25.548;2023-06-19T10:02:35;31.54;40.43
77467;DHT22;66564;42.482;25.548;2023-06-19T10:05:01;31.51;39.64
77467;DHT22;66564;42.482;25.548;2023-06-19T10:07:33;31.53;38.94
77467;DHT22;66564;42.482;25.548;2023-06-19T10:12:46;31.56;38.88
77467;DHT22;66564;42.482;25.548;2023-06-19T10:15:24;31.54;41.08
77467;DHT22;66564;42.482;25.548;2023-06-19T10:17:52;31.53;40.44
77467;DHT22;66564;42.482;25.548;2023-06-19T10:20:29;31.51;38.76
77467;DHT22;66564;42.482;25.548;2023-06-19T10:23:10;31.44;38.71
77467;DHT22;66564;42.482;25.548;2023-06-19T10:25:39;31.36;39.24
77467;DHT22;66564;42.482;25.548;2023-06-19T10:28:26;31.27;38.80
77467;DHT22;66564;42.482;25.548;2023-06-19T10:30:59;31.19;39.45
77467;DHT22;66564;42.482;25.548;2023-06-19T10:33:26;31.18;38.49
77467;DHT22;66564;42.482;25.548;2023-06-19T10:35:52;31.21;40.70
77467;DHT22;66564;42.482;25.548;2023-06-19T10:38:18;31.25;37.99
77467;DHT22;66564;42.482;25.548;2023-06-19T10:40:44;31.25;40.52
77467;DHT22;66564;42.482;25.548;2023-06-19T10:43:19;31.25;42.80
77467;DHT22;66564;42.482;25.548;2023-06-19T10:45:44;31.26;42.49
77467;DHT22;66564;42.482;25.548;2023-06-19T10:48:10;31.19;42.14
77467;DHT22;66564;42.482;25.548;2023-06-19T10:50:42;31.12;42.14
77467;DHT22;66564;42.482;25.548;2023-06-19T10:53:10;31.00;42.57
77467;DHT22;66564;42.482;25.548;2023-06-19T10:55:36;30.91;42.68
77467;DHT22;66564;42.482;25.548;2023-06-19T10:58:01;30.79;43.10
77467;DHT22;66564;42.482;25.548;2023-06-19T11:00:32;30.74;42.71
77467;DHT22;66564;42.482;25.548;2023-06-19T11:03:04;30.65;43.15
77467;DHT22;66564;42.482;25.548;2023-06-19T11:05:36;30.64;43.70
77467;DHT22;66564;42.482;25.548;2023-06-19T11:08:01;30.61;43.36
77467;DHT22;66564;42.482;25.548;2023-06-19T11:10:28;30.68;44.15
77467;DHT22;66564;42.482;25.548;2023-06-19T11:12:58;30.72;42.53
77467;DHT22;66564;42.482;25.548;2023-06-19T11:15:30;30.76;41.96
77467;DHT22;66564;42.482;25.548;2023-06-19T11:18:02;30.85;40.83
77467;DHT22;66564;42.482;25.548;2023-06-19T11:20:28;30.91;38.82
77467;DHT22;66564;42.482;25.548;2023-06-19T11:22:58;30.83;39.40
77467;DHT22;66564;42.482;25.548;2023-06-19T11:25:43;30.74;38.46
77467;DHT22;66564;42.482;25.548;2023-06-19T11:28:15;30.85;38.76
77467;DHT22;66564;42.482;25.548;2023-06-19T11:30:43;30.95;39.67
77467;DHT22;66564;42.482;25.548;2023-06-19T11:33:21;31.02;39.64
77467;DHT22;66564;42.482;25.548;2023-06-19T11:35:48;31.13;39.60
77467;DHT22;66564;42.482;25.548;2023-06-19T11:38:19;31.21;40.14
77467;DHT22;66564;42.482;25.548;2023-06-19T11:40:45;31.27;39.39
77467;DHT22;66564;42.482;25.548;2023-06-19T11:43:11;31.36;40.03
77467;DHT22;66564;42.482;25.548;2023-06-19T11:45:49;31.40;38.56
77467;DHT22;66564;42.482;25.548;2023-06-19T11:48:25;31.40;39.12
77467;DHT22;66564;42.482;25.548;2023-06-19T11:50:52;31.40;38.66
77467;DHT22;66564;42.482;25.548;2023-06-19T11:53:22;31.32;39.19
77467;DHT22;66564;42.482;25.548;2023-06-19T11:55:47;31.26;39.13
77467;DHT22;66564;42.482;25.548;2023-06-19T11:58:14;31.19;39.20
77467;DHT22;66564;42.482;25.548;2023-06-19T12:00:43;31.12;39.12
77467;DHT22;66564;42.482;25.548;2023-06-19T12:03:09;31.03;38.81
77467;DHT22;66564;42.482;25.548;2023-06-19T12:05:35;30.96;38.91
77467;DHT22;66564;42.482;25.548;2023-06-19T12:08:01;30.89;39.58
77467;DHT22;66564;42.482;25.548;2023-06-19T12:10:28;30.83;39.68
77467;DHT22;66564;42.482;25.548;2023-06-19T12:12:53;30.69;41.31
77467;DHT22;66564;42.482;25.548;2023-06-19T12:15:19;30.27;42.95
77467;DHT22;66564;42.482;25.548;2023-06-19T12:17:45;30.21;43.24
77467;DHT22;66564;42.482;25.548;2023-06-19T12:20:11;30.11;44.27
77467;DHT22;66564;42.482;25.548;2023-06-19T12:22:39;30.00;45.40
77467;DHT22;66564;42.482;25.548;2023-06-19T12:25:05;29.93;44.58
77467;DHT22;66564;42.482;25.548;2023-06-19T12:27:30;29.78;45.25
77467;DHT22;66564;42.482;25.548;2023-06-19T12:29:56;29.74;44.17
77467;DHT22;66564;42.482;25.548;2023-06-19T12:32:21;29.67;44.86
77467;DHT22;66564;42.482;25.548;2023-06-19T12:34:47;29.66;43.35
77467;DHT22;66564;42.482;25.548;2023-06-19T12:37:16;29.57;45.12
77467;DHT22;66564;42.482;25.548;2023-06-19T12:39:44;29.56;45.17
77467;DHT22;66564;42.482;25.548;2023-06-19T12:42:10;29.54;43.14
77467;DHT22;66564;42.482;25.548;2023-06-19T12:44:38;29.54;44.79
77467;DHT22;66564;42.482;25.548;2023-06-19T12:47:04;29.62;43.43
77467;DHT22;66564;42.482;25.548;2023-06-19T12:49:30;29.64;44.59
77467;DHT22;66564;42.482;25.548;2023-06-19T12:51:56;29.73;44.49
77467;DHT22;66564;42.482;25.548;2023-06-19T12:54:22;29.77;44.07
77467;DHT22;66564;42.482;25.548;2023-06-19T12:56:48;29.86;43.14
77467;DHT22;66564;42.482;25.548;2023-06-19T12:59:13;29.88;44.28
77467;DHT22;66564;42.482;25.548;2023-06-19T13:01:48;29.93;43.80
77467;DHT22;66564;42.482;25.548;2023-06-19T13:04:14;29.94;43.09
77467;DHT22;66564;42.482;25.548;2023-06-19T13:06:40;29.96;44.08
77467;DHT22;66564;42.482;25.548;2023-06-19T13:09:13;29.84;43.80
77467;DHT22;66564;42.482;25.548;2023-06-19T13:11:38;29.81;43.81
77467;DHT22;66564;42.482;25.548;2023-06-19T13:14:09;29.80;44.05
77467;DHT22;66564;42.482;25.548;2023-06-19T13:16:35;29.81;43.50
77467;DHT22;66564;42.482;25.548;2023-06-19T13:19:02;29.83;42.25
77467;DHT22;66564;42.482;25.548;2023-06-19T13:21:27;29.87;42.28
77467;DHT22;66564;42.482;25.548;2023-06-19T13:23:53;29.94;42.65
77467;DHT22;66564;42.482;25.548;2023-06-19T13:26:19;30.01;40.70
77467;DHT22;66564;42.482;25.548;2023-06-19T13:28:45;30.08;41.84
77467;DHT22;66564;42.482;25.548;2023-06-19T13:31:15;30.18;41.38
77467;DHT22;66564;42.482;25.548;2023-06-19T13:33:41;30.31;41.61
77467;DHT22;66564;42.482;25.548;2023-06-19T13:36:07;30.45;40.61
77467;DHT22;66564;42.482;25.548;2023-06-19T13:38:33;30.61;40.47
77467;DHT22;66564;42.482;25.548;2023-06-19T13:40:58;30.79;39.79
77467;DHT22;66564;42.482;25.548;2023-06-19T13:43:24;30.92;39.62
77467;DHT22;66564;42.482;25.548;2023-06-19T13:45:50;31.00;39.88
77467;DHT22;66564;42.482;25.548;2023-06-19T13:48:15;31.13;39.64
77467;DHT22;66564;42.482;25.548;2023-06-19T13:50:41;31.19;39.02
77467;DHT22;66564;42.482;25.548;2023-06-19T13:53:06;31.22;38.71
77467;DHT22;66564;42.482;25.548;2023-06-19T13:55:35;31.33;39.14
77467;DHT22;66564;42.482;25.548;2023-06-19T13:58:01;31.44;38.91
77467;DHT22;66564;42.482;25.548;2023-06-19T14:00:27;31.53;37.75
77467;DHT22;66564;42.482;25.548;2023-06-19T14:02:53;31.63;37.42
77467;DHT22;66564;42.482;25.548;2023-06-19T14:05:19;31.76;38.17
77467;DHT22;66564;42.482;25.548;2023-06-19T14:07:45;31.83;36.90
77467;DHT22;66564;42.482;25.548;2023-06-19T14:10:11;31.86;36.97
77467;DHT22;66564;42.482;25.548;2023-06-19T14:12:36;31.88;36.95
77467;DHT22;66564;42.482;25.548;2023-06-19T14:15:02;31.93;37.55
77467;DHT22;66564;42.482;25.548;2023-06-19T14:17:27;31.94;37.05
77467;DHT22;66564;42.482;25.548;2023-06-19T14:19:53;31.94;37.14
77467;DHT22;66564;42.482;25.548;2023-06-19T14:22:20;31.98;37.57
77467;DHT22;66564;42.482;25.548;2023-06-19T14:24:46;32.06;36.62
77467;DHT22;66564;42.482;25.548;2023-06-19T14:27:12;32.10;36.79
77467;DHT22;66564;42.482;25.548;2023-06-19T14:29:37;32.08;36.56
77467;DHT22;66564;42.482;25.548;2023-06-19T14:32:03;32.00;36.71
77467;DHT22;66564;42.482;25.548;2023-06-19T14:34:29;31.91;37.10
77467;DHT22;66564;42.482;25.548;2023-06-19T14:36:54;31.78;37.59
77467;DHT22;66564;42.482;25.548;2023-06-19T14:39:20;31.67;37.17
77467;DHT22;66564;42.482;25.548;2023-06-19T14:41:45;31.59;37.28
77467;DHT22;66564;42.482;25.548;2023-06-19T14:44:11;31.44;37.32
77467;DHT22;66564;42.482;25.548;2023-06-19T14:46:38;31.21;37.34
77467;DHT22;66564;42.482;25.548;2023-06-19T14:49:06;30.96;37.53
77467;DHT22;66564;42.482;25.548;2023-06-19T14:51:31;30.78;37.60
77467;DHT22;66564;42.482;25.548;2023-06-19T14:53:57;30.65;37.60
77467;DHT22;66564;42.482;25.548;2023-06-19T14:56:23;30.57;38.47
77467;DHT22;66564;42.482;25.548;2023-06-19T14:58:49;30.44;38.04
77467;DHT22;66564;42.482;25.548;2023-06-19T15:01:15;30.34;38.17
77467;DHT22;66564;42.482;25.548;2023-06-19T15:03:42;30.25;38.54
77467;DHT22;66564;42.482;25.548;2023-06-19T15:06:07;30.13;38.24
77467;DHT22;66564;42.482;25.548;2023-06-19T15:08:36;29.96;38.18
77467;DHT22;66564;42.482;25.548;2023-06-19T15:11:03;29.88;38.72
77467;DHT22;66564;42.482;25.548;2023-06-19T15:13:30;29.81;38.69
77467;DHT22;66564;42.482;25.548;2023-06-19T15:15:56;29.54;39.67